NWWM

Nouméa Magenta Airport

Nouméa, New Caledonia
TAF NWWM 211700Z 2118/2218 VRB03KT 9999 SCT040 PROB30 TEMPO 2206/2218 RA
Issued Valid From Valid To
Jun-21 @ 17:00 UTC
(an hour ago)
Jun-21 @ 18:00 UTC
(13 minutes ago)
Jun-22 @ 18:00 UTC
(in 24 hours)
Jun-21 @ 18:00 to Jun-22 @ 18:00
TAF NWWM 211700Z 2118/2218 VRB03KT 9999 SCT040
Wind Visibility Clouds
Variable at 3 knots 10,000+ meters
  • Scattered at 4,000' AGL
Temporary  (Probability 30%) Jun-22 @ 06:00 to Jun-22 @ 18:00
PROB30 TEMPO 2206/2218 RA
Conditions
  • Rain
TAF NWWM 211700Z 2118/2218 VRB03KT 9999 SCT040 PROB30 TEMPO 2206/2218 RA
Issued Jun-21 @ 17:00 UTC
(an hour ago)
Valid From Jun-21 @ 18:00 UTC
(13 minutes ago)
Valid To Jun-22 @ 18:00 UTC
(in 24 hours)
Jun-21 @ 18:00 - Jun-22 @ 18:00
Wind Visibility
Variable at 3 knots 10,000+ meters
Clouds
  • Scattered at 4,000' AGL
Probability 30% Temporary Jun-22 @ 06:00 - Jun-22 @ 18:00
Conditions
  • Rain